sensor_id;sensor_type;location;lat;lon;timestamp;temperature;humidity
55008;DHT22;40902;45.116;21.296;2023-04-26T00:02:02;281.70;2278.40
55008;DHT22;40902;45.116;21.296;2023-04-26T00:04:29;256.80;2252.80
55008;DHT22;40902;45.116;21.296;2023-04-26T00:06:56;256.80;2252.80
55008;DHT22;40902;45.116;21.296;2023-04-26T00:09:22;281.90;2278.40
55008;DHT22;40902;45.116;21.296;2023-04-26T00:11:47;256.90;2252.80
55008;DHT22;40902;45.116;21.296;2023-04-26T00:14:13;256.80;2252.80
55008;DHT22;40902;45.116;21.296;2023-04-26T00:16:39;256.70;2252.80
55008;DHT22;40902;45.116;21.296;2023-04-26T00:19:05;256.70;2252.80
55008;DHT22;40902;45.116;21.296;2023-04-26T00:21:30;256.80;2252.80
55008;DHT22;40902;45.116;21.296;2023-04-26T00:23:56;256.80;2252.80
55008;DHT22;40902;45.116;21.296;2023-04-26T00:26:22;256.80;2252.80
55008;DHT22;40902;45.116;21.296;2023-04-26T00:28:48;256.70;2252.80
55008;DHT22;40902;45.116;21.296;2023-04-26T00:31:17;256.80;2252.80
55008;DHT22;40902;45.116;21.296;2023-04-26T00:33:43;256.70;2252.80
55008;DHT22;40902;45.116;21.296;2023-04-26T00:36:09;256.80;2252.80
55008;DHT22;40902;45.116;21.296;2023-04-26T00:38:35;256.70;2252.80
55008;DHT22;40902;45.116;21.296;2023-04-26T00:41:01;256.70;2252.80
55008;DHT22;40902;45.116;21.296;2023-04-26T00:43:27;256.70;2252.80
55008;DHT22;40902;45.116;21.296;2023-04-26T00:45:52;256.70;2252.80
55008;DHT22;40902;45.116;21.296;2023-04-26T00:48:19;256.60;2252.80
55008;DHT22;40902;45.116;21.296;2023-04-26T00:50:45;256.70;2252.80
55008;DHT22;40902;45.116;21.296;2023-04-26T00:53:15;256.50;2252.80
55008;DHT22;40902;45.116;21.296;2023-04-26T00:55:42;256.80;2252.80
55008;DHT22;40902;45.116;21.296;2023-04-26T00:58:09;256.50;2252.80
55008;DHT22;40902;45.116;21.296;2023-04-26T01:00:34;256.60;2252.80
55008;DHT22;40902;45.116;21.296;2023-04-26T01:03:00;256.50;2252.80
55008;DHT22;40902;45.116;21.296;2023-04-26T01:05:26;256.60;2252.80
55008;DHT22;40902;45.116;21.296;2023-04-26T01:07:52;256.50;2252.80
55008;DHT22;40902;45.116;21.296;2023-04-26T01:10:18;256.50;2252.80
55008;DHT22;40902;45.116;21.296;2023-04-26T01:12:44;256.40;2252.80
55008;DHT22;40902;45.116;21.296;2023-04-26T01:17:37;256.80;2252.80
55008;DHT22;40902;45.116;21.296;2023-04-26T01:20:03;256.60;2252.80
55008;DHT22;40902;45.116;21.296;2023-04-26T01:22:33;256.40;2252.80
55008;DHT22;40902;45.116;21.296;2023-04-26T01:24:59;256.70;2252.80
55008;DHT22;40902;45.116;21.296;2023-04-26T01:27:26;256.50;2252.80
55008;DHT22;40902;45.116;21.296;2023-04-26T01:29:52;256.40;2252.80
55008;DHT22;40902;45.116;21.296;2023-04-26T01:32:18;256.40;2252.80
55008;DHT22;40902;45.116;21.296;2023-04-26T01:34:44;256.40;2252.80
55008;DHT22;40902;45.116;21.296;2023-04-26T01:37:09;256.40;2252.80
55008;DHT22;40902;45.116;21.296;2023-04-26T01:39:36;256.30;2252.80
55008;DHT22;40902;45.116;21.296;2023-04-26T01:42:02;256.30;2252.80
55008;DHT22;40902;45.116;21.296;2023-04-26T01:44:29;256.30;2252.80
55008;DHT22;40902;45.116;21.296;2023-04-26T01:46:55;256.30;2252.80
55008;DHT22;40902;45.116;21.296;2023-04-26T01:49:21;256.20;2252.80
55008;DHT22;40902;45.116;21.296;2023-04-26T01:51:46;256.10;2252.80
55008;DHT22;40902;45.116;21.296;2023-04-26T01:54:12;256.10;2252.80
55008;DHT22;40902;45.116;21.296;2023-04-26T01:56:38;256.30;2252.80
55008;DHT22;40902;45.116;21.296;2023-04-26T01:59:03;256.30;2252.80
55008;DHT22;40902;45.116;21.296;2023-04-26T02:01:29;256.20;2252.80
55008;DHT22;40902;45.116;21.296;2023-04-26T02:03:55;256.00;2252.80
55008;DHT22;40902;45.116;21.296;2023-04-26T02:06:21;256.00;2252.80
55008;DHT22;40902;45.116;21.296;2023-04-26T02:16:06;256.60;2252.80
55008;DHT22;40902;45.116;21.296;2023-04-26T02:18:32;256.20;2252.80
55008;DHT22;40902;45.116;21.296;2023-04-26T02:20:58;256.20;2252.80
55008;DHT22;40902;45.116;21.296;2023-04-26T02:23:24;256.20;2252.80
55008;DHT22;40902;45.116;21.296;2023-04-26T02:25:50;256.20;2252.80
55008;DHT22;40902;45.116;21.296;2023-04-26T02:28:16;256.20;2252.80
55008;DHT22;40902;45.116;21.296;2023-04-26T03:12:09;256.10;2252.80
55008;DHT22;40902;45.116;21.296;2023-04-26T03:14:35;231.30;2252.80
55008;DHT22;40902;45.116;21.296;2023-04-26T03:17:01;230.90;2252.80
55008;DHT22;40902;45.116;21.296;2023-04-26T03:19:27;230.80;2252.80
55008;DHT22;40902;45.116;21.296;2023-04-26T03:21:53;230.80;2252.80
55008;DHT22;40902;45.116;21.296;2023-04-26T03:24:19;230.70;2252.80
55008;DHT22;40902;45.116;21.296;2023-04-26T03:29:11;231.00;2252.80
55008;DHT22;40902;45.116;21.296;2023-04-26T03:31:37;230.70;2252.80
55008;DHT22;40902;45.116;21.296;2023-04-26T03:34:03;230.70;2252.80
55008;DHT22;40902;45.116;21.296;2023-04-26T03:36:29;230.70;2252.80
55008;DHT22;40902;45.116;21.296;2023-04-26T03:38:55;230.80;2252.80
55008;DHT22;40902;45.116;21.296;2023-04-26T03:41:21;230.80;2252.80
55008;DHT22;40902;45.116;21.296;2023-04-26T03:43:47;230.90;2252.80
55008;DHT22;40902;45.116;21.296;2023-04-26T03:46:13;231.00;2252.80
55008;DHT22;40902;45.116;21.296;2023-04-26T03:48:39;231.10;2252.80
55008;DHT22;40902;45.116;21.296;2023-04-26T03:51:05;231.20;2252.80
55008;DHT22;40902;45.116;21.296;2023-04-26T03:53:31;231.20;2252.80
55008;DHT22;40902;45.116;21.296;2023-04-26T03:55:57;231.20;2252.80
55008;DHT22;40902;45.116;21.296;2023-04-26T03:58:24;231.20;2252.80
55008;DHT22;40902;45.116;21.296;2023-04-26T04:00:50;231.20;2252.80
55008;DHT22;40902;45.116;21.296;2023-04-26T04:03:16;231.10;2252.80
55008;DHT22;40902;45.116;21.296;2023-04-26T04:05:42;231.10;2252.80
55008;DHT22;40902;45.116;21.296;2023-04-26T04:08:08;231.20;2252.80
55008;DHT22;40902;45.116;21.296;2023-04-26T04:10:34;231.10;2252.80
55008;DHT22;40902;45.116;21.296;2023-04-26T04:13:01;231.20;2252.80
55008;DHT22;40902;45.116;21.296;2023-04-26T04:15:27;231.30;2252.80
55008;DHT22;40902;45.116;21.296;2023-04-26T04:17:52;231.30;2252.80
55008;DHT22;40902;45.116;21.296;2023-04-26T04:20:18;256.00;2252.80
55008;DHT22;40902;45.116;21.296;2023-04-26T04:22:45;256.00;2252.80
55008;DHT22;40902;45.116;21.296;2023-04-26T04:25:11;256.00;2252.80
55008;DHT22;40902;45.116;21.296;2023-04-26T04:27:38;231.30;2252.80
55008;DHT22;40902;45.116;21.296;2023-04-26T04:30:07;231.30;2252.80
55008;DHT22;40902;45.116;21.296;2023-04-26T04:32:35;256.10;2252.80
55008;DHT22;40902;45.116;21.296;2023-04-26T04:35:02;256.10;2252.80
55008;DHT22;40902;45.116;21.296;2023-04-26T04:37:28;256.40;2252.80
55008;DHT22;40902;45.116;21.296;2023-04-26T04:39:54;256.50;2252.80
55008;DHT22;40902;45.116;21.296;2023-04-26T04:42:20;256.70;2252.80
55008;DHT22;40902;45.116;21.296;2023-04-26T04:44:46;256.90;2252.80
55008;DHT22;40902;45.116;21.296;2023-04-26T04:47:12;281.60;2278.40
55008;DHT22;40902;45.116;21.296;2023-04-26T04:49:38;281.70;2278.40
55008;DHT22;40902;45.116;21.296;2023-04-26T04:52:05;281.80;2278.40
55008;DHT22;40902;45.116;21.296;2023-04-26T04:54:31;281.70;2278.40
55008;DHT22;40902;45.116;21.296;2023-04-26T04:56:57;281.70;2278.40
55008;DHT22;40902;45.116;21.296;2023-04-26T04:59:23;281.70;2278.40
55008;DHT22;40902;45.116;21.296;2023-04-26T05:01:49;281.70;2278.40
55008;DHT22;40902;45.116;21.296;2023-04-26T05:04:15;281.70;2278.40
55008;DHT22;40902;45.116;21.296;2023-04-26T05:06:41;281.70;2278.40
55008;DHT22;40902;45.116;21.296;2023-04-26T05:09:08;281.70;2278.40
55008;DHT22;40902;45.116;21.296;2023-04-26T05:11:34;281.70;2278.40
55008;DHT22;40902;45.116;21.296;2023-04-26T05:13:59;281.70;2278.40
55008;DHT22;40902;45.116;21.296;2023-04-26T05:16:25;281.70;2278.40
55008;DHT22;40902;45.116;21.296;2023-04-26T05:18:51;281.60;2278.40
55008;DHT22;40902;45.116;21.296;2023-04-26T05:21:17;256.90;2252.80
55008;DHT22;40902;45.116;21.296;2023-04-26T05:23:43;281.60;2278.40
55008;DHT22;40902;45.116;21.296;2023-04-26T05:26:15;281.60;2278.40
55008;DHT22;40902;45.116;21.296;2023-04-26T05:28:41;281.60;2278.40
55008;DHT22;40902;45.116;21.296;2023-04-26T05:31:10;281.80;2278.40
55008;DHT22;40902;45.116;21.296;2023-04-26T05:33:36;281.80;2278.40
55008;DHT22;40902;45.116;21.296;2023-04-26T05:36:02;281.70;2278.40
55008;DHT22;40902;45.116;21.296;2023-04-26T05:38:28;281.70;2278.40
55008;DHT22;40902;45.116;21.296;2023-04-26T05:40:54;281.60;2278.40
55008;DHT22;40902;45.116;21.296;2023-04-26T05:43:20;281.70;2278.40
55008;DHT22;40902;45.116;21.296;2023-04-26T05:45:53;281.80;2278.40
55008;DHT22;40902;45.116;21.296;2023-04-26T05:48:23;282.00;2278.40
55008;DHT22;40902;45.116;21.296;2023-04-26T05:50:49;282.00;2278.40
55008;DHT22;40902;45.116;21.296;2023-04-26T05:53:16;282.10;2278.40
55008;DHT22;40902;45.116;21.296;2023-04-26T05:55:42;282.10;2278.40
55008;DHT22;40902;45.116;21.296;2023-04-26T05:58:09;282.20;2278.40
55008;DHT22;40902;45.116;21.296;2023-04-26T06:00:35;282.30;2278.40
55008;DHT22;40902;45.116;21.296;2023-04-26T06:03:01;282.20;2278.40
55008;DHT22;40902;45.116;21.296;2023-04-26T06:05:27;282.30;2278.40
55008;DHT22;40902;45.116;21.296;2023-04-26T06:07:53;282.40;2278.40
55008;DHT22;40902;45.116;21.296;2023-04-26T06:10:19;307.20;2304.00
55008;DHT22;40902;45.116;21.296;2023-04-26T06:12:46;307.20;2304.00
55008;DHT22;40902;45.116;21.296;2023-04-26T06:15:12;307.60;2304.00
55008;DHT22;40902;45.116;21.296;2023-04-26T06:17:39;307.60;2304.00
55008;DHT22;40902;45.116;21.296;2023-04-26T06:20:05;307.60;2304.00
55008;DHT22;40902;45.116;21.296;2023-04-26T06:22:31;307.40;2304.00
55008;DHT22;40902;45.116;21.296;2023-04-26T06:24:56;307.50;2304.00
55008;DHT22;40902;45.116;21.296;2023-04-26T06:27:22;307.50;2304.00
55008;DHT22;40902;45.116;21.296;2023-04-26T06:29:48;307.40;2304.00
55008;DHT22;40902;45.116;21.296;2023-04-26T06:32:14;307.50;2304.00
55008;DHT22;40902;45.116;21.296;2023-04-26T06:34:40;307.60;2304.00
55008;DHT22;40902;45.116;21.296;2023-04-26T06:37:08;308.00;2304.00
55008;DHT22;40902;45.116;21.296;2023-04-26T06:39:34;308.00;2304.00
55008;DHT22;40902;45.116;21.296;2023-04-26T06:42:00;308.10;2304.00
55008;DHT22;40902;45.116;21.296;2023-04-26T06:44:26;332.80;2329.60
55008;DHT22;40902;45.116;21.296;2023-04-26T06:46:55;332.80;2329.60
55008;DHT22;40902;45.116;21.296;2023-04-26T06:49:21;308.10;2304.00
55008;DHT22;40902;45.116;21.296;2023-04-26T06:51:47;332.90;2329.60
55008;DHT22;40902;45.116;21.296;2023-04-26T06:54:12;332.90;2329.60
55008;DHT22;40902;45.116;21.296;2023-04-26T06:56:38;332.90;2329.60
55008;DHT22;40902;45.116;21.296;2023-04-26T06:59:05;332.80;2329.60
55008;DHT22;40902;45.116;21.296;2023-04-26T07:01:32;332.90;2329.60
55008;DHT22;40902;45.116;21.296;2023-04-26T07:04:04;333.00;2329.60
55008;DHT22;40902;45.116;21.296;2023-04-26T07:06:32;308.10;2304.00
55008;DHT22;40902;45.116;21.296;2023-04-26T07:08:59;308.10;2304.00
55008;DHT22;40902;45.116;21.296;2023-04-26T07:11:25;308.00;2304.00
55008;DHT22;40902;45.116;21.296;2023-04-26T07:13:51;308.00;2304.00
55008;DHT22;40902;45.116;21.296;2023-04-26T07:16:16;308.00;2304.00
55008;DHT22;40902;45.116;21.296;2023-04-26T07:18:42;308.00;2304.00
55008;DHT22;40902;45.116;21.296;2023-04-26T07:21:08;308.00;2304.00
55008;DHT22;40902;45.116;21.296;2023-04-26T07:23:34;308.00;2304.00
55008;DHT22;40902;45.116;21.296;2023-04-26T07:26:00;308.00;2304.00
55008;DHT22;40902;45.116;21.296;2023-04-26T07:28:26;308.00;2304.00
55008;DHT22;40902;45.116;21.296;2023-04-26T07:30:52;308.10;2304.00
55008;DHT22;40902;45.116;21.296;2023-04-26T07:33:18;308.10;2304.00
55008;DHT22;40902;45.116;21.296;2023-04-26T07:35:44;332.80;2329.60
55008;DHT22;40902;45.116;21.296;2023-04-26T07:38:09;332.90;2329.60
55008;DHT22;40902;45.116;21.296;2023-04-26T07:40:35;333.00;2329.60
55008;DHT22;40902;45.116;21.296;2023-04-26T07:43:01;333.00;2329.60
55008;DHT22;40902;45.116;21.296;2023-04-26T07:45:27;333.10;2329.60
55008;DHT22;40902;45.116;21.296;2023-04-26T07:47:52;333.50;2329.60
55008;DHT22;40902;45.116;21.296;2023-04-26T07:50:19;333.30;2329.60
55008;DHT22;40902;45.116;21.296;2023-04-26T07:52:45;333.20;2329.60
55008;DHT22;40902;45.116;21.296;2023-04-26T07:55:11;333.20;2329.60
55008;DHT22;40902;45.116;21.296;2023-04-26T07:57:37;333.20;2329.60
55008;DHT22;40902;45.116;21.296;2023-04-26T08:00:04;333.40;2329.60
55008;DHT22;40902;45.116;21.296;2023-04-26T09:04:06;359.30;2329.60
55008;DHT22;40902;45.116;21.296;2023-04-26T09:06:32;358.90;2329.60
55008;DHT22;40902;45.116;21.296;2023-04-26T09:09:02;358.80;2329.60
55008;DHT22;40902;45.116;21.296;2023-04-26T09:11:29;358.80;2329.60
55008;DHT22;40902;45.116;21.296;2023-04-26T09:13:55;358.80;2329.60
55008;DHT22;40902;45.116;21.296;2023-04-26T09:16:36;358.80;2329.60
55008;DHT22;40902;45.116;21.296;2023-04-26T09:19:02;358.70;2329.60
55008;DHT22;40902;45.116;21.296;2023-04-26T09:21:28;358.60;2329.60
55008;DHT22;40902;45.116;21.296;2023-04-26T09:23:58;358.40;2329.60
55008;DHT22;40902;45.116;21.296;2023-04-26T09:26:24;358.40;2329.60
55008;DHT22;40902;45.116;21.296;2023-04-26T09:29:16;333.70;2329.60
55008;DHT22;40902;45.116;21.296;2023-04-26T09:31:49;333.40;2329.60
55008;DHT22;40902;45.116;21.296;2023-04-26T09:34:15;333.40;2329.60
55008;DHT22;40902;45.116;21.296;2023-04-26T09:36:51;333.30;2329.60
55008;DHT22;40902;45.116;21.296;2023-04-26T09:39:38;333.30;2329.60
55008;DHT22;40902;45.116;21.296;2023-04-26T09:42:05;333.40;2329.60
55008;DHT22;40902;45.116;21.296;2023-04-26T09:44:32;333.50;2329.60
55008;DHT22;40902;45.116;21.296;2023-04-26T09:47:05;333.40;2329.60
55008;DHT22;40902;45.116;21.296;2023-04-26T09:49:45;333.40;2329.60
55008;DHT22;40902;45.116;21.296;2023-04-26T09:52:13;333.40;2329.60
55008;DHT22;40902;45.116;21.296;2023-04-26T09:54:45;333.30;2329.60
55008;DHT22;40902;45.116;21.296;2023-04-26T09:57:13;333.30;2329.60
55008;DHT22;40902;45.116;21.296;2023-04-26T10:02:14;333.30;2329.60
55008;DHT22;40902;45.116;21.296;2023-04-26T10:04:43;333.40;2329.60
55008;DHT22;40902;45.116;21.296;2023-04-26T10:07:12;333.30;2329.60
55008;DHT22;40902;45.116;21.296;2023-04-26T10:09:38;333.30;2329.60
55008;DHT22;40902;45.116;21.296;2023-04-26T10:12:05;333.40;2329.60
55008;DHT22;40902;45.116;21.296;2023-04-26T10:14:32;333.40;2329.60
55008;DHT22;40902;45.116;21.296;2023-04-26T10:16:59;333.40;2329.60
55008;DHT22;40902;45.116;21.296;2023-04-26T10:19:26;333.50;2329.60
55008;DHT22;40902;45.116;21.296;2023-04-26T10:21:53;333.60;2329.60
55008;DHT22;40902;45.116;21.296;2023-04-26T10:24:22;333.50;2329.60
55008;DHT22;40902;45.116;21.296;2023-04-26T10:26:53;333.50;2329.60
55008;DHT22;40902;45.116;21.296;2023-04-26T10:29:25;333.60;2329.60
55008;DHT22;40902;45.116;21.296;2023-04-26T10:34:28;358.50;2329.60
55008;DHT22;40902;45.116;21.296;2023-04-26T10:37:15;358.50;2329.60
55008;DHT22;40902;45.116;21.296;2023-04-26T10:39:45;358.60;2329.60
55008;DHT22;40902;45.116;21.296;2023-04-26T10:42:25;358.80;2329.60
55008;DHT22;40902;45.116;21.296;2023-04-26T10:44:58;358.90;2329.60
55008;DHT22;40902;45.116;21.296;2023-04-26T10:49:50;359.10;2329.60
55008;DHT22;40902;45.116;21.296;2023-04-26T10:52:19;359.10;2329.60
55008;DHT22;40902;45.116;21.296;2023-04-26T10:54:54;359.00;2329.60
55008;DHT22;40902;45.116;21.296;2023-04-26T10:57:22;359.20;2329.60
55008;DHT22;40902;45.116;21.296;2023-04-26T11:05:38;384.70;2329.60
55008;DHT22;40902;45.116;21.296;2023-04-26T11:08:17;384.50;2329.60
55008;DHT22;40902;45.116;21.296;2023-04-26T11:10:58;384.50;2329.60
55008;DHT22;40902;45.116;21.296;2023-04-26T11:13:24;384.50;2329.60
55008;DHT22;40902;45.116;21.296;2023-04-26T11:15:53;384.60;2329.60
55008;DHT22;40902;45.116;21.296;2023-04-26T11:18:20;384.60;2329.60
55008;DHT22;40902;45.116;21.296;2023-04-26T11:20:46;384.70;2329.60
55008;DHT22;40902;45.116;21.296;2023-04-26T11:23:12;384.60;2329.60
55008;DHT22;40902;45.116;21.296;2023-04-26T11:25:40;384.50;2329.60
55008;DHT22;40902;45.116;21.296;2023-04-26T11:28:06;384.50;2329.60
55008;DHT22;40902;45.116;21.296;2023-04-26T11:30:32;384.50;2329.60
55008;DHT22;40902;45.116;21.296;2023-04-26T11:32:59;384.50;2329.60
55008;DHT22;40902;45.116;21.296;2023-04-26T11:35:25;384.50;2329.60
55008;DHT22;40902;45.116;21.296;2023-04-26T11:37:52;384.60;2329.60
55008;DHT22;40902;45.116;21.296;2023-04-26T11:40:18;384.60;2329.60
55008;DHT22;40902;45.116;21.296;2023-04-26T11:42:44;384.70;2329.60
55008;DHT22;40902;45.116;21.296;2023-04-26T11:45:10;384.60;2329.60
55008;DHT22;40902;45.116;21.296;2023-04-26T11:47:36;384.60;2329.60
55008;DHT22;40902;45.116;21.296;2023-04-26T11:50:02;384.50;2329.60
55008;DHT22;40902;45.116;21.296;2023-04-26T11:52:29;384.50;2329.60
55008;DHT22;40902;45.116;21.296;2023-04-26T11:55:03;384.50;2329.60
55008;DHT22;40902;45.116;21.296;2023-04-26T11:57:30;384.50;2329.60
55008;DHT22;40902;45.116;21.296;2023-04-26T12:00:12;384.50;2329.60
55008;DHT22;40902;45.116;21.296;2023-04-26T12:02:45;384.60;2329.60
55008;DHT22;40902;45.116;21.296;2023-04-26T12:05:25;384.70;2329.60
55008;DHT22;40902;45.116;21.296;2023-04-26T12:07:52;384.80;2329.60
55008;DHT22;40902;45.116;21.296;2023-04-26T12:12:51;409.90;2355.20
55008;DHT22;40902;45.116;21.296;2023-04-26T12:15:21;409.80;2355.20
55008;DHT22;40902;45.116;21.296;2023-04-26T12:17:57;384.90;2329.60
55008;DHT22;40902;45.116;21.296;2023-04-26T12:20:30;384.80;2329.60
55008;DHT22;40902;45.116;21.296;2023-04-26T12:23:09;384.80;2329.60
55008;DHT22;40902;45.116;21.296;2023-04-26T12:25:39;384.80;2329.60
55008;DHT22;40902;45.116;21.296;2023-04-26T12:28:08;384.90;2329.60
55008;DHT22;40902;45.116;21.296;2023-04-26T12:30:37;384.80;2329.60
55008;DHT22;40902;45.116;21.296;2023-04-26T12:37:56;410.10;2355.20
55008;DHT22;40902;45.116;21.296;2023-04-26T12:40:25;409.80;2355.20
55008;DHT22;40902;45.116;21.296;2023-04-26T12:42:52;409.60;2355.20
55008;DHT22;40902;45.116;21.296;2023-04-26T12:45:20;384.90;2329.60
55008;DHT22;40902;45.116;21.296;2023-04-26T12:47:47;384.90;2329.60
55008;DHT22;40902;45.116;21.296;2023-04-26T12:50:14;384.90;2329.60
55008;DHT22;40902;45.116;21.296;2023-04-26T12:52:42;384.80;2329.60
55008;DHT22;40902;45.116;21.296;2023-04-26T12:55:09;384.90;2329.60
55008;DHT22;40902;45.116;21.296;2023-04-26T12:57:36;409.70;2355.20
55008;DHT22;40902;45.116;21.296;2023-04-26T13:00:04;409.70;2355.20
55008;DHT22;40902;45.116;21.296;2023-04-26T13:02:30;409.70;2355.20
55008;DHT22;40902;45.116;21.296;2023-04-26T13:04:57;409.60;2355.20
55008;DHT22;40902;45.116;21.296;2023-04-26T13:07:23;384.90;2329.60
55008;DHT22;40902;45.116;21.296;2023-04-26T13:09:48;409.70;2355.20
55008;DHT22;40902;45.116;21.296;2023-04-26T13:12:14;409.70;2355.20
55008;DHT22;40902;45.116;21.296;2023-04-26T13:14:40;409.80;2355.20
55008;DHT22;40902;45.116;21.296;2023-04-26T13:17:06;409.90;2355.20
55008;DHT22;40902;45.116;21.296;2023-04-26T13:19:34;410.30;2355.20
55008;DHT22;40902;45.116;21.296;2023-04-26T13:22:01;435.20;2355.20
55008;DHT22;40902;45.116;21.296;2023-04-26T13:24:29;410.30;2355.20
55008;DHT22;40902;45.116;21.296;2023-04-26T13:26:55;410.30;2355.20
55008;DHT22;40902;45.116;21.296;2023-04-26T13:29:20;410.40;2355.20
55008;DHT22;40902;45.116;21.296;2023-04-26T13:46:29;435.70;2355.20
55008;DHT22;40902;45.116;21.296;2023-04-26T13:48:56;435.40;2355.20
55008;DHT22;40902;45.116;21.296;2023-04-26T13:51:22;435.40;2355.20
55008;DHT22;40902;45.116;21.296;2023-04-26T13:53:49;435.30;2355.20
55008;DHT22;40902;45.116;21.296;2023-04-26T13:56:16;435.30;2355.20
55008;DHT22;40902;45.116;21.296;2023-04-26T13:58:42;435.30;2355.20
55008;DHT22;40902;45.116;21.296;2023-04-26T14:01:11;410.50;2355.20
55008;DHT22;40902;45.116;21.296;2023-04-26T14:03:38;410.40;2355.20
55008;DHT22;40902;45.116;21.296;2023-04-26T14:06:05;410.40;2355.20
55008;DHT22;40902;45.116;21.296;2023-04-26T14:08:31;410.30;2355.20
55008;DHT22;40902;45.116;21.296;2023-04-26T14:10:56;410.20;2355.20
55008;DHT22;40902;45.116;21.296;2023-04-26T14:13:22;410.10;2355.20
55008;DHT22;40902;45.116;21.296;2023-04-26T14:15:48;410.00;2355.20
55008;DHT22;40902;45.116;21.296;2023-04-26T14:18:14;410.00;2355.20
55008;DHT22;40902;45.116;21.296;2023-04-26T14:20:40;410.00;2355.20
55008;DHT22;40902;45.116;21.296;2023-04-26T14:23:06;409.90;2355.20
55008;DHT22;40902;45.116;21.296;2023-04-26T14:25:32;409.80;2355.20
55008;DHT22;40902;45.116;21.296;2023-04-26T14:27:57;409.60;2355.20
55008;DHT22;40902;45.116;21.296;2023-04-26T14:30:24;409.60;2355.20
55008;DHT22;40902;45.116;21.296;2023-04-26T14:32:50;384.90;2329.60
55008;DHT22;40902;45.116;21.296;2023-04-26T14:35:16;384.90;2329.60
55008;DHT22;40902;45.116;21.296;2023-04-26T14:37:41;384.90;2329.60
55008;DHT22;40902;45.116;21.296;2023-04-26T14:40:07;384.90;2329.60
55008;DHT22;40902;45.116;21.296;2023-04-26T14:42:33;384.90;2329.60
55008;DHT22;40902;45.116;21.296;2023-04-26T14:44:59;409.60;2355.20
55008;DHT22;40902;45.116;21.296;2023-04-26T14:47:25;409.70;2355.20
55008;DHT22;40902;45.116;21.296;2023-04-26T14:49:51;409.90;2355.20
55008;DHT22;40902;45.116;21.296;2023-04-26T14:52:17;410.10;2355.20
55008;DHT22;40902;45.116;21.296;2023-04-26T14:54:43;410.30;2355.20
55008;DHT22;40902;45.116;21.296;2023-04-26T14:57:09;410.50;2355.20
55008;DHT22;40902;45.116;21.296;2023-04-26T14:59:35;435.50;2355.20
55008;DHT22;40902;45.116;21.296;2023-04-26T15:02:01;436.10;2355.20
55008;DHT22;40902;45.116;21.296;2023-04-26T15:04:28;436.10;2355.20
55008;DHT22;40902;45.116;21.296;2023-04-26T15:06:53;436.00;2355.20
55008;DHT22;40902;45.116;21.296;2023-04-26T15:09:19;435.80;2355.20
55008;DHT22;40902;45.116;21.296;2023-04-26T15:11:45;435.70;2355.20
55008;DHT22;40902;45.116;21.296;2023-04-26T15:14:11;435.50;2355.20
55008;DHT22;40902;45.116;21.296;2023-04-26T15:16:36;435.40;2355.20
55008;DHT22;40902;45.116;21.296;2023-04-26T15:19:02;435.30;2355.20
55008;DHT22;40902;45.116;21.296;2023-04-26T15:21:28;435.40;2355.20
55008;DHT22;40902;45.116;21.296;2023-04-26T15:23:55;435.70;2355.20
55008;DHT22;40902;45.116;21.296;2023-04-26T15:26:21;435.70;2355.20
55008;DHT22;40902;45.116;21.296;2023-04-26T15:28:48;460.80;2380.80
55008;DHT22;40902;45.116;21.296;2023-04-26T15:31:14;461.20;2278.40
55008;DHT22;40902;45.116;21.296;2023-04-26T15:33:40;461.30;2201.60
55008;DHT22;40902;45.116;21.296;2023-04-26T15:36:06;461.20;2304.00
55008;DHT22;40902;45.116;21.296;2023-04-26T15:38:35;435.90;2355.20
55008;DHT22;40902;45.116;21.296;2023-04-26T15:41:00;435.40;2355.20
55008;DHT22;40902;45.116;21.296;2023-04-26T15:43:26;410.40;2355.20
55008;DHT22;40902;45.116;21.296;2023-04-26T15:45:52;410.00;2355.20
55008;DHT22;40902;45.116;21.296;2023-04-26T15:48:18;409.90;2355.20
55008;DHT22;40902;45.116;21.296;2023-04-26T15:55:36;409.80;2355.20
55008;DHT22;40902;45.116;21.296;2023-04-26T15:58:02;384.80;2329.60
55008;DHT22;40902;45.116;21.296;2023-04-26T16:00:28;384.70;2329.60
55008;DHT22;40902;45.116;21.296;2023-04-26T16:07:47;409.70;2355.20
55008;DHT22;40902;45.116;21.296;2023-04-26T16:10:13;409.70;2355.20
55008;DHT22;40902;45.116;21.296;2023-04-26T16:12:38;384.80;2329.60
55008;DHT22;40902;45.116;21.296;2023-04-26T16:15:07;384.80;2329.60
55008;DHT22;40902;45.116;21.296;2023-04-26T16:17:34;384.50;2329.60
55008;DHT22;40902;45.116;21.296;2023-04-26T16:20:00;384.50;2329.60
55008;DHT22;40902;45.116;21.296;2023-04-26T16:22:26;384.50;2329.60
55008;DHT22;40902;45.116;21.296;2023-04-26T16:24:52;384.50;2329.60
55008;DHT22;40902;45.116;21.296;2023-04-26T16:27:18;384.60;2329.60
55008;DHT22;40902;45.116;21.296;2023-04-26T16:29:45;384.60;2329.60
55008;DHT22;40902;45.116;21.296;2023-04-26T16:32:12;384.80;2329.60
55008;DHT22;40902;45.116;21.296;2023-04-26T16:34:38;384.80;2329.60
55008;DHT22;40902;45.116;21.296;2023-04-26T16:37:04;384.80;2329.60
55008;DHT22;40902;45.116;21.296;2023-04-26T16:39:30;384.80;2329.60
55008;DHT22;40902;45.116;21.296;2023-04-26T16:41:56;384.70;2329.60
55008;DHT22;40902;45.116;21.296;2023-04-26T16:44:22;384.70;2329.60
55008;DHT22;40902;45.116;21.296;2023-04-26T16:46:51;384.70;2329.60
55008;DHT22;40902;45.116;21.296;2023-04-26T16:49:16;384.70;2329.60
55008;DHT22;40902;45.116;21.296;2023-04-26T16:51:42;384.60;2329.60
55008;DHT22;40902;45.116;21.296;2023-04-26T16:54:18;384.60;2329.60
55008;DHT22;40902;45.116;21.296;2023-04-26T16:56:43;384.50;2329.60
55008;DHT22;40902;45.116;21.296;2023-04-26T16:59:09;384.50;2329.60
55008;DHT22;40902;45.116;21.296;2023-04-26T17:01:35;384.50;2329.60
55008;DHT22;40902;45.116;21.296;2023-04-26T17:04:00;384.50;2329.60
55008;DHT22;40902;45.116;21.296;2023-04-26T17:06:26;384.50;2329.60
55008;DHT22;40902;45.116;21.296;2023-04-26T17:08:52;384.50;2329.60
55008;DHT22;40902;45.116;21.296;2023-04-26T17:11:18;384.50;2329.60
55008;DHT22;40902;45.116;21.296;2023-04-26T17:13:43;384.40;2329.60
55008;DHT22;40902;45.116;21.296;2023-04-26T17:16:09;384.20;2329.60